createdAt,value
2019-05-07T04:12:53.370Z,3.65
2019-05-07T04:15:26.681Z,2.70
2019-05-07T04:17:56.950Z,3.52
2019-05-07T04:20:33.068Z,4.25
2019-05-07T04:23:04.390Z,3.22
2019-05-07T04:28:34.528Z,3.12
2019-05-07T04:31:07.037Z,3.22
2019-05-07T04:33:46.929Z,2.95
2019-05-07T04:36:23.958Z,3.17
2019-05-07T04:38:57.715Z,2.83
2019-05-07T04:42:03.538Z,3.37
2019-05-07T04:44:34.197Z,3.30
2019-05-07T04:50:07.017Z,3.15
2019-05-07T04:52:43.677Z,3.00
2019-05-07T04:55:19.238Z,2.35
2019-05-07T04:57:53.093Z,3.08
2019-05-07T05:00:24.890Z,3.65
2019-05-07T05:03:03.774Z,2.70
2019-05-07T05:05:37.164Z,2.40
2019-05-07T05:08:13.315Z,3.12
2019-05-07T05:10:46.786Z,2.40
2019-05-07T05:13:23.236Z,2.30
2019-05-07T05:15:55.976Z,3.33
2019-05-07T05:18:29.980Z,2.23
2019-05-07T05:21:27.528Z,2.50
2019-05-07T05:24:03.439Z,2.17
2019-05-07T05:26:46.414Z,2.33
2019-05-07T05:29:32.274Z,2.12
2019-05-07T05:38:03.111Z,1.90
2019-05-07T05:40:42.478Z,1.90
2019-05-07T05:43:33.597Z,2.40
2019-05-07T05:46:07.302Z,2.00
2019-05-07T05:51:42.867Z,2.30
2019-05-07T05:54:39.712Z,2.58
2019-05-07T05:57:16.263Z,2.65
2019-05-07T06:00:02.432Z,2.50
2019-05-07T06:02:43.937Z,2.15
2019-05-07T06:05:45.216Z,2.47
2019-05-07T06:08:43.443Z,2.00
2019-05-07T06:14:43.003Z,2.33
2019-05-07T06:20:28.699Z,2.00
2019-05-07T06:23:30.094Z,2.58
2019-05-07T06:29:05.235Z,2.40
2019-05-07T06:34:34.250Z,1.80
2019-05-07T06:37:11.719Z,2.75
2019-05-07T06:39:43.374Z,2.60
2019-05-07T06:42:36.938Z,2.37
2019-05-07T06:45:22.799Z,2.33
2019-05-07T06:47:56.373Z,2.20
2019-05-07T06:50:43.232Z,1.80
2019-05-07T06:56:07.139Z,2.02
2019-05-07T06:58:41.762Z,2.02
2019-05-07T07:01:32.253Z,2.70
2019-05-07T07:04:12.995Z,2.00
2019-05-07T07:06:52.489Z,1.80
2019-05-07T07:09:51.828Z,1.82
2019-05-07T07:12:24.102Z,1.57
2019-05-07T07:14:53.148Z,1.87
2019-05-07T07:17:24.752Z,1.87
2019-05-07T07:19:54.907Z,2.27
2019-05-07T07:22:25.428Z,2.40
2019-05-07T07:24:56.287Z,1.60
2019-05-07T07:27:25.659Z,1.62
2019-05-07T07:29:56.679Z,1.57
2019-05-07T07:32:36.496Z,1.15
2019-05-07T07:35:09.507Z,1.72
2019-05-07T07:37:42.829Z,1.55
2019-05-07T07:40:16.410Z,1.67
2019-05-07T07:42:51.930Z,2.37
2019-05-07T07:45:23.187Z,1.50
2019-05-07T07:47:53.068Z,1.70
2019-05-07T07:50:22.517Z,1.85
2019-05-07T07:52:52.962Z,2.12
2019-05-07T07:55:24.053Z,1.62
2019-05-07T07:57:57.667Z,1.40
2019-05-07T08:00:37.147Z,1.57
2019-05-07T08:03:10.017Z,1.90
2019-05-07T08:05:42.948Z,2.25
2019-05-07T08:08:13.520Z,1.77
2019-05-07T08:10:43.077Z,1.50
2019-05-07T08:13:12.745Z,1.60
2019-05-07T08:15:44.781Z,2.10
2019-05-07T08:18:22.148Z,1.50
2019-05-07T08:23:55.250Z,1.70
2019-05-07T08:26:24.217Z,2.08
2019-05-07T08:28:53.580Z,1.55
2019-05-07T08:31:32.492Z,1.85
2019-05-07T08:34:08.398Z,2.00
2019-05-07T08:36:37.886Z,1.95
2019-05-07T08:39:08.908Z,2.05
2019-05-07T08:41:37.817Z,1.52
2019-05-07T08:44:12.218Z,1.70
2019-05-07T08:46:52.181Z,1.77
2019-05-07T08:49:33.322Z,1.27
2019-05-07T08:52:03.513Z,1.20
2019-05-07T08:54:32.436Z,1.02
2019-05-07T08:57:02.741Z,1.15
2019-05-07T08:59:32.761Z,1.02
2019-05-07T09:02:02.923Z,1.50
2019-05-07T09:04:32.713Z,1.02
2019-05-07T09:07:02.639Z,1.65
2019-05-07T09:09:32.360Z,1.30
2019-05-07T09:12:03.050Z,1.47
2019-05-07T09:14:32.842Z,1.30
2019-05-07T09:17:02.929Z,1.10
2019-05-07T09:19:46.983Z,1.50
2019-05-07T09:22:03.787Z,1.45
2019-05-07T09:24:33.431Z,1.15
2019-05-07T09:27:07.026Z,1.17
2019-05-07T09:29:42.573Z,1.17
2019-05-07T09:32:13.101Z,1.00
2019-05-07T09:34:43.568Z,1.50
2019-05-07T09:37:14.063Z,1.10
2019-05-07T09:39:43.438Z,1.95
2019-05-07T09:42:12.373Z,1.72
2019-05-07T09:44:42.491Z,2.17
2019-05-07T09:47:12.903Z,2.00
2019-05-07T09:49:42.004Z,1.62
2019-05-07T09:52:12.254Z,1.22
2019-05-07T09:54:42.868Z,1.77
2019-05-07T09:57:27.673Z,1.82
2019-05-07T09:59:42.646Z,1.80
2019-05-07T10:02:12.285Z,2.22
2019-05-07T10:04:42.425Z,1.90
2019-05-07T10:07:13.088Z,2.27
2019-05-07T10:09:42.676Z,2.05
2019-05-07T10:12:16.229Z,2.30
2019-05-07T10:14:45.390Z,1.80
2019-05-07T10:17:56.815Z,1.37
2019-05-07T10:20:27.748Z,1.00
2019-05-07T10:22:58.065Z,1.42
2019-05-07T10:25:29.526Z,1.20
2019-05-07T10:27:58.837Z,1.15
2019-05-07T10:30:28.820Z,1.20
2019-05-07T10:32:57.718Z,1.37
2019-05-07T10:35:26.915Z,1.10
2019-05-07T10:37:56.019Z,1.05
2019-05-07T10:40:25.425Z,1.60
2019-05-07T10:42:54.691Z,1.00
2019-05-07T10:45:29.832Z,1.00
2019-05-07T10:48:02.566Z,1.10
2019-05-07T10:50:39.005Z,1.30
2019-05-07T10:53:07.549Z,0.93
2019-05-07T10:55:36.998Z,1.42
2019-05-07T10:58:08.447Z,1.10
2019-05-07T11:00:38.309Z,1.00
2019-05-07T11:03:09.445Z,1.10
2019-05-07T11:05:38.522Z,1.02
2019-05-07T11:08:10.027Z,1.00
2019-05-07T11:10:41.896Z,1.30
2019-05-07T11:13:12.846Z,0.85
2019-05-07T11:15:44.101Z,1.37
2019-05-07T11:18:29.018Z,1.65
2019-05-07T11:20:58.942Z,0.90
2019-05-07T11:23:28.187Z,0.98
2019-05-07T11:25:57.908Z,0.98
2019-05-07T11:28:28.254Z,1.02
2019-05-07T11:30:57.465Z,0.90
2019-05-07T11:33:27.288Z,0.90
2019-05-07T11:36:08.580Z,1.02
2019-05-07T11:38:42.242Z,0.98
2019-05-07T11:57:33.432Z,1.10
2019-05-07T12:00:08.854Z,1.00
2019-05-07T12:12:24.831Z,1.15
2019-05-07T12:18:19.051Z,0.80
2019-05-07T12:20:57.681Z,0.80
2019-05-07T12:23:33.233Z,1.07
2019-05-07T12:26:12.572Z,0.90
2019-05-07T12:28:52.289Z,1.20
2019-05-07T12:31:25.972Z,1.00
2019-05-07T12:34:12.408Z,0.80
2019-05-07T12:36:41.823Z,1.00
2019-05-07T12:39:12.789Z,1.52
2019-05-07T12:41:42.447Z,1.70
2019-05-07T12:51:31.023Z,1.07
2019-05-07T12:56:22.139Z,1.55
2019-05-07T12:58:51.800Z,1.05
2019-05-07T13:01:37.522Z,1.20
2019-05-07T13:09:59.930Z,2.35
2019-05-07T13:12:50.599Z,1.30
2019-05-07T13:28:02.557Z,0.98
2019-05-07T13:33:38.820Z,1.12
2019-05-07T13:36:12.360Z,0.90
2019-05-07T13:38:51.919Z,1.47
2019-05-07T13:41:39.951Z,1.20
2019-05-07T13:44:12.335Z,1.10
2019-05-07T13:47:13.829Z,0.93
2019-05-07T13:49:43.877Z,0.85
2019-05-07T13:52:25.774Z,1.80
2019-05-07T13:55:04.742Z,1.57
2019-05-07T13:57:36.314Z,1.12
2019-05-07T14:00:28.623Z,1.42
2019-05-07T14:03:03.080Z,2.12
2019-05-07T14:05:32.398Z,1.52
2019-05-07T14:08:04.546Z,1.52
2019-05-07T14:10:38.747Z,1.00
2019-05-07T14:13:15.013Z,1.42
2019-05-07T14:15:56.483Z,1.42
2019-05-07T14:18:44.389Z,1.30
2019-05-07T14:21:23.526Z,1.55
2019-05-07T14:23:56.792Z,1.20
2019-05-07T14:26:34.095Z,2.00
2019-05-07T14:29:08.618Z,0.90
2019-05-07T14:34:34.893Z,1.17
2019-05-07T14:37:24.458Z,0.70
2019-05-07T14:39:51.927Z,1.00
2019-05-07T14:45:13.434Z,1.12
2019-05-07T14:47:47.721Z,1.20
2019-05-07T14:50:26.225Z,1.75
2019-05-07T14:53:12.981Z,1.20
2019-05-07T14:55:56.590Z,1.00
2019-05-07T14:58:35.490Z,0.90
2019-05-07T15:01:07.865Z,1.35
2019-05-07T15:03:43.440Z,1.32
2019-05-07T15:09:23.325Z,0.78
2019-05-07T15:12:05.459Z,1.35
2019-05-07T15:17:42.671Z,1.35
2019-05-07T15:23:25.915Z,0.75
2019-05-07T15:26:04.939Z,0.70
2019-05-07T15:34:39.278Z,1.00
2019-05-07T15:43:13.089Z,0.98
2019-05-07T15:45:45.014Z,1.07
2019-05-07T15:48:22.913Z,1.50
2019-05-07T15:51:23.165Z,1.10
2019-05-07T16:03:22.062Z,1.42
2019-05-07T16:05:55.514Z,1.22
2019-05-07T16:21:26.613Z,0.98
2019-05-07T16:23:57.784Z,1.47
2019-05-07T16:42:27.055Z,0.70
2019-05-07T18:07:42.784Z,1.00
2019-05-07T18:37:15.583Z,1.30
2019-05-07T18:45:46.989Z,0.80
2019-05-07T18:48:43.345Z,1.27
2019-05-07T18:51:18.329Z,1.20
2019-05-07T18:54:11.794Z,1.67
2019-05-07T18:59:49.680Z,1.52
2019-05-07T19:02:22.850Z,1.62
2019-05-07T19:07:47.776Z,1.65
2019-05-07T19:16:39.788Z,1.30
2019-05-07T19:19:12.536Z,1.80
2019-05-07T19:21:44.386Z,1.62
2019-05-07T19:24:14.843Z,1.40
2019-05-07T19:26:47.699Z,1.10
2019-05-07T19:29:16.613Z,1.07
2019-05-07T19:31:55.455Z,1.65
2019-05-07T19:34:25.551Z,1.27
2019-05-07T19:36:54.481Z,1.17
2019-05-07T19:39:23.605Z,1.40
2019-05-07T19:41:52.971Z,1.40
2019-05-07T19:44:23.369Z,1.60
2019-05-07T19:46:57.096Z,1.62
2019-05-07T19:49:26.433Z,1.52
2019-05-07T19:51:57.196Z,1.77
2019-05-07T19:54:27.716Z,1.27
2019-05-07T19:56:57.686Z,1.75
2019-05-07T19:59:27.180Z,1.77
2019-05-07T20:01:59.754Z,1.55
2019-05-07T20:04:31.996Z,1.40
2019-05-07T20:07:12.142Z,1.30
2019-05-07T20:09:44.582Z,1.37
2019-05-07T20:12:14.612Z,1.55
2019-05-07T20:14:44.695Z,1.40
2019-05-07T20:17:15.401Z,1.40
2019-05-07T20:19:46.662Z,1.70
2019-05-07T20:22:15.855Z,1.52
2019-05-07T20:24:46.999Z,1.60
2019-05-07T20:27:16.621Z,1.70
2019-05-07T20:29:46.734Z,1.30
2019-05-07T20:32:15.728Z,1.20
2019-05-07T20:34:47.017Z,1.98
2019-05-07T20:37:16.306Z,1.27
2019-05-07T20:40:58.446Z,1.90
2019-05-07T20:43:32.119Z,1.92
2019-05-07T20:46:04.804Z,1.62
2019-05-07T20:48:34.956Z,1.27
2019-05-07T20:51:04.344Z,1.62
2019-05-07T20:53:53.796Z,1.85
2019-05-07T20:56:41.939Z,1.57
2019-05-07T20:59:14.300Z,1.30
2019-05-07T21:01:44.097Z,2.25
2019-05-07T21:04:16.011Z,1.72
2019-05-07T21:06:48.025Z,1.52
2019-05-07T21:09:18.126Z,2.20
2019-05-07T21:11:48.455Z,1.95
2019-05-07T21:14:22.649Z,2.02
2019-05-07T21:16:51.858Z,2.12
2019-05-07T21:19:22.577Z,1.95
2019-05-07T21:21:52.258Z,1.87
2019-05-07T21:24:25.520Z,2.20
2019-05-07T21:26:58.692Z,1.67
2019-05-07T21:29:34.005Z,1.45
2019-05-07T21:32:05.431Z,1.90
2019-05-07T21:34:37.657Z,1.90
2019-05-07T21:37:08.615Z,2.45
2019-05-07T21:39:42.513Z,2.25
2019-05-07T21:42:22.909Z,4.62
2019-05-07T21:44:53.575Z,3.33
2019-05-07T21:47:25.444Z,2.17
2019-05-07T21:49:58.279Z,2.85
2019-05-07T21:52:28.908Z,1.85
2019-05-07T21:55:02.337Z,1.57
2019-05-07T21:57:42.478Z,1.67
2019-05-07T22:00:16.396Z,1.60
2019-05-07T22:02:45.384Z,1.52
2019-05-07T22:05:16.053Z,2.00
2019-05-07T22:07:45.275Z,1.42
2019-05-07T22:10:15.077Z,2.08
2019-05-07T22:12:46.771Z,1.70
2019-05-07T22:15:16.117Z,2.55
2019-05-07T22:17:47.792Z,2.70
2019-05-07T22:20:17.625Z,3.85
2019-05-07T22:22:46.524Z,2.70
2019-05-07T22:25:16.044Z,4.10
2019-05-07T22:27:46.108Z,3.20
2019-05-07T22:30:17.201Z,2.42
2019-05-07T22:32:49.652Z,3.77
2019-05-07T22:35:36.616Z,2.90
2019-05-07T22:38:05.588Z,2.25
2019-05-07T22:40:34.294Z,3.08
2019-05-07T22:43:03.063Z,2.83
2019-05-07T22:45:32.323Z,2.80
2019-05-07T22:48:02.799Z,2.60
2019-05-07T22:50:33.167Z,2.60
2019-05-07T22:53:02.095Z,3.00
2019-05-07T22:55:32.698Z,1.80
2019-05-07T22:58:02.869Z,2.15
2019-05-07T23:00:33.238Z,1.77
2019-05-07T23:03:02.736Z,1.70
2019-05-07T23:05:33.141Z,1.72
2019-05-07T23:08:02.548Z,2.17
2019-05-07T23:10:33.542Z,2.37
2019-05-07T23:13:04.043Z,2.33
2019-05-07T23:15:33.005Z,2.40
2019-05-07T23:18:04.360Z,2.55
2019-05-07T23:20:32.841Z,2.45
2019-05-07T23:23:03.701Z,2.10
2019-05-07T23:25:33.259Z,2.83
2019-05-07T23:28:05.211Z,2.20
2019-05-07T23:30:33.138Z,2.70
2019-05-07T23:33:04.941Z,2.60
2019-05-07T23:35:34.238Z,2.45
2019-05-07T23:38:05.069Z,2.67
2019-05-07T23:40:45.693Z,2.75
2019-05-07T23:43:17.405Z,2.52
2019-05-07T23:45:47.696Z,2.05
2019-05-07T23:48:18.122Z,2.62
2019-05-07T23:50:48.797Z,2.20
2019-05-07T23:53:19.438Z,2.20
2019-05-07T23:55:48.502Z,2.08
2019-05-07T23:58:22.862Z,2.02
